sensor_id;sensor_type;location;lat;lon;timestamp;P1;durP1;ratioP1;P2;durP2;ratioP2
27265;SDS011;14766;51.380;13.762;2024-01-30T00:02:20;20.52;;;11.32;;
27265;SDS011;14766;51.380;13.762;2024-01-30T00:04:47;20.83;;;11.55;;
27265;SDS011;14766;51.380;13.762;2024-01-30T00:07:15;22.45;;;12.35;;
27265;SDS011;14766;51.380;13.762;2024-01-30T00:09:42;22.15;;;11.55;;
27265;SDS011;14766;51.380;13.762;2024-01-30T00:12:09;22.75;;;12.32;;
27265;SDS011;14766;51.380;13.762;2024-01-30T00:14:36;23.85;;;12.70;;
27265;SDS011;14766;51.380;13.762;2024-01-30T00:17:03;25.85;;;12.73;;
27265;SDS011;14766;51.380;13.762;2024-01-30T00:19:30;24.75;;;13.10;;
27265;SDS011;14766;51.380;13.762;2024-01-30T00:21:58;21.92;;;11.98;;
27265;SDS011;14766;51.380;13.762;2024-01-30T00:24:26;21.13;;;11.82;;
27265;SDS011;14766;51.380;13.762;2024-01-30T00:26:52;24.98;;;13.25;;
27265;SDS011;14766;51.380;13.762;2024-01-30T00:29:20;18.65;;;11.82;;
27265;SDS011;14766;51.380;13.762;2024-01-30T00:31:48;21.77;;;12.18;;
27265;SDS011;14766;51.380;13.762;2024-01-30T00:34:15;25.08;;;13.70;;
27265;SDS011;14766;51.380;13.762;2024-01-30T00:36:43;23.63;;;13.10;;
27265;SDS011;14766;51.380;13.762;2024-01-30T00:39:10;23.58;;;13.88;;
27265;SDS011;14766;51.380;13.762;2024-01-30T00:41:38;22.17;;;13.10;;
27265;SDS011;14766;51.380;13.762;2024-01-30T00:44:05;24.17;;;12.80;;
27265;SDS011;14766;51.380;13.762;2024-01-30T00:46:33;20.58;;;12.63;;
27265;SDS011;14766;51.380;13.762;2024-01-30T00:49:00;21.88;;;12.40;;
27265;SDS011;14766;51.380;13.762;2024-01-30T00:51:28;23.20;;;12.43;;
27265;SDS011;14766;51.380;13.762;2024-01-30T00:53:56;21.20;;;12.23;;
27265;SDS011;14766;51.380;13.762;2024-01-30T00:56:23;22.48;;;12.88;;
27265;SDS011;14766;51.380;13.762;2024-01-30T00:58:50;21.58;;;13.18;;
27265;SDS011;14766;51.380;13.762;2024-01-30T01:01:17;22.20;;;13.20;;
27265;SDS011;14766;51.380;13.762;2024-01-30T01:03:46;23.20;;;13.23;;
27265;SDS011;14766;51.380;13.762;2024-01-30T01:06:15;23.95;;;12.90;;
27265;SDS011;14766;51.380;13.762;2024-01-30T01:08:42;25.27;;;13.45;;
27265;SDS011;14766;51.380;13.762;2024-01-30T01:11:09;24.13;;;13.23;;
27265;SDS011;14766;51.380;13.762;2024-01-30T01:13:36;19.23;;;11.48;;
27265;SDS011;14766;51.380;13.762;2024-01-30T01:16:04;26.67;;;12.90;;
27265;SDS011;14766;51.380;13.762;2024-01-30T01:18:31;23.40;;;12.80;;
27265;SDS011;14766;51.380;13.762;2024-01-30T01:20:58;22.42;;;12.55;;
27265;SDS011;14766;51.380;13.762;2024-01-30T01:23:26;21.17;;;11.40;;
27265;SDS011;14766;51.380;13.762;2024-01-30T01:25:54;21.70;;;12.82;;
27265;SDS011;14766;51.380;13.762;2024-01-30T01:28:26;21.58;;;12.95;;
27265;SDS011;14766;51.380;13.762;2024-01-30T01:30:54;22.67;;;12.48;;
27265;SDS011;14766;51.380;13.762;2024-01-30T01:33:25;23.95;;;12.52;;
27265;SDS011;14766;51.380;13.762;2024-01-30T01:35:53;22.08;;;12.65;;
27265;SDS011;14766;51.380;13.762;2024-01-30T01:38:21;22.52;;;12.13;;
27265;SDS011;14766;51.380;13.762;2024-01-30T01:40:48;22.00;;;13.23;;
27265;SDS011;14766;51.380;13.762;2024-01-30T01:43:15;20.90;;;11.88;;
27265;SDS011;14766;51.380;13.762;2024-01-30T01:45:42;23.23;;;12.98;;
27265;SDS011;14766;51.380;13.762;2024-01-30T01:48:09;25.55;;;12.98;;
27265;SDS011;14766;51.380;13.762;2024-01-30T01:50:37;22.90;;;12.38;;
27265;SDS011;14766;51.380;13.762;2024-01-30T01:53:06;23.88;;;13.05;;
27265;SDS011;14766;51.380;13.762;2024-01-30T01:55:34;19.50;;;11.60;;
27265;SDS011;14766;51.380;13.762;2024-01-30T01:58:02;20.45;;;11.52;;
27265;SDS011;14766;51.380;13.762;2024-01-30T02:00:29;22.15;;;12.60;;
27265;SDS011;14766;51.380;13.762;2024-01-30T02:02:57;21.73;;;13.02;;
27265;SDS011;14766;51.380;13.762;2024-01-30T02:05:26;21.30;;;11.93;;
27265;SDS011;14766;51.380;13.762;2024-01-30T02:07:53;22.00;;;11.73;;
27265;SDS011;14766;51.380;13.762;2024-01-30T02:10:21;19.83;;;11.50;;
27265;SDS011;14766;51.380;13.762;2024-01-30T02:12:49;23.10;;;12.70;;
27265;SDS011;14766;51.380;13.762;2024-01-30T02:15:16;19.50;;;11.68;;
27265;SDS011;14766;51.380;13.762;2024-01-30T02:17:45;22.40;;;13.20;;
27265;SDS011;14766;51.380;13.762;2024-01-30T02:20:12;21.00;;;12.27;;
27265;SDS011;14766;51.380;13.762;2024-01-30T02:22:40;18.30;;;11.38;;
27265;SDS011;14766;51.380;13.762;2024-01-30T02:25:08;21.85;;;13.18;;
27265;SDS011;14766;51.380;13.762;2024-01-30T02:27:35;24.02;;;13.40;;
27265;SDS011;14766;51.380;13.762;2024-01-30T02:30:02;20.83;;;12.15;;
27265;SDS011;14766;51.380;13.762;2024-01-30T02:32:29;18.00;;;11.65;;
27265;SDS011;14766;51.380;13.762;2024-01-30T02:34:57;18.23;;;11.02;;
27265;SDS011;14766;51.380;13.762;2024-01-30T02:37:24;20.13;;;11.77;;
27265;SDS011;14766;51.380;13.762;2024-01-30T02:39:51;19.45;;;11.27;;
27265;SDS011;14766;51.380;13.762;2024-01-30T02:42:18;22.15;;;11.98;;
27265;SDS011;14766;51.380;13.762;2024-01-30T02:44:45;19.42;;;11.57;;
27265;SDS011;14766;51.380;13.762;2024-01-30T02:47:12;19.73;;;11.70;;
27265;SDS011;14766;51.380;13.762;2024-01-30T02:49:39;19.95;;;11.80;;
27265;SDS011;14766;51.380;13.762;2024-01-30T02:52:07;23.23;;;11.32;;
27265;SDS011;14766;51.380;13.762;2024-01-30T02:54:34;21.88;;;11.68;;
27265;SDS011;14766;51.380;13.762;2024-01-30T02:57:01;20.65;;;11.88;;
27265;SDS011;14766;51.380;13.762;2024-01-30T02:59:28;18.60;;;11.38;;
27265;SDS011;14766;51.380;13.762;2024-01-30T03:01:55;21.33;;;11.85;;
27265;SDS011;14766;51.380;13.762;2024-01-30T03:04:22;21.85;;;11.73;;
27265;SDS011;14766;51.380;13.762;2024-01-30T03:06:50;23.05;;;12.60;;
27265;SDS011;14766;51.380;13.762;2024-01-30T03:09:17;22.83;;;12.55;;
27265;SDS011;14766;51.380;13.762;2024-01-30T03:11:45;20.63;;;11.88;;
27265;SDS011;14766;51.380;13.762;2024-01-30T03:14:12;21.33;;;11.68;;
27265;SDS011;14766;51.380;13.762;2024-01-30T03:16:39;19.50;;;11.48;;
27265;SDS011;14766;51.380;13.762;2024-01-30T03:19:06;21.42;;;11.90;;
27265;SDS011;14766;51.380;13.762;2024-01-30T03:21:37;25.15;;;13.07;;
27265;SDS011;14766;51.380;13.762;2024-01-30T03:24:06;22.88;;;12.30;;
27265;SDS011;14766;51.380;13.762;2024-01-30T03:26:34;20.70;;;12.25;;
27265;SDS011;14766;51.380;13.762;2024-01-30T03:29:01;22.60;;;12.20;;
27265;SDS011;14766;51.380;13.762;2024-01-30T03:31:28;23.67;;;12.10;;
27265;SDS011;14766;51.380;13.762;2024-01-30T03:33:55;19.88;;;11.60;;
27265;SDS011;14766;51.380;13.762;2024-01-30T03:36:23;24.08;;;12.68;;
27265;SDS011;14766;51.380;13.762;2024-01-30T03:38:51;22.55;;;12.35;;
27265;SDS011;14766;51.380;13.762;2024-01-30T03:41:18;22.08;;;12.05;;
27265;SDS011;14766;51.380;13.762;2024-01-30T03:43:46;21.00;;;12.38;;
27265;SDS011;14766;51.380;13.762;2024-01-30T03:46:13;17.20;;;11.13;;
27265;SDS011;14766;51.380;13.762;2024-01-30T03:48:41;24.30;;;12.23;;
27265;SDS011;14766;51.380;13.762;2024-01-30T03:51:08;20.08;;;11.88;;
27265;SDS011;14766;51.380;13.762;2024-01-30T03:53:41;21.08;;;10.60;;
27265;SDS011;14766;51.380;13.762;2024-01-30T03:56:08;21.20;;;11.65;;
27265;SDS011;14766;51.380;13.762;2024-01-30T03:58:35;20.63;;;11.95;;
27265;SDS011;14766;51.380;13.762;2024-01-30T04:01:03;21.73;;;12.15;;
27265;SDS011;14766;51.380;13.762;2024-01-30T04:03:30;20.45;;;11.52;;
27265;SDS011;14766;51.380;13.762;2024-01-30T04:05:57;24.35;;;13.63;;
27265;SDS011;14766;51.380;13.762;2024-01-30T04:08:24;21.05;;;12.55;;
27265;SDS011;14766;51.380;13.762;2024-01-30T04:10:51;18.77;;;11.73;;
27265;SDS011;14766;51.380;13.762;2024-01-30T04:13:18;19.35;;;11.60;;
27265;SDS011;14766;51.380;13.762;2024-01-30T04:15:46;21.48;;;12.40;;
27265;SDS011;14766;51.380;13.762;2024-01-30T04:18:13;22.27;;;12.27;;
27265;SDS011;14766;51.380;13.762;2024-01-30T04:20:40;22.90;;;11.93;;
27265;SDS011;14766;51.380;13.762;2024-01-30T04:23:07;22.05;;;12.82;;
27265;SDS011;14766;51.380;13.762;2024-01-30T04:25:34;22.02;;;12.02;;
27265;SDS011;14766;51.380;13.762;2024-01-30T04:28:02;16.92;;;10.48;;
27265;SDS011;14766;51.380;13.762;2024-01-30T04:30:29;18.30;;;11.32;;
27265;SDS011;14766;51.380;13.762;2024-01-30T04:32:56;17.42;;;9.52;;
27265;SDS011;14766;51.380;13.762;2024-01-30T04:35:23;18.95;;;10.25;;
27265;SDS011;14766;51.380;13.762;2024-01-30T04:37:52;18.73;;;10.63;;
27265;SDS011;14766;51.380;13.762;2024-01-30T04:40:20;17.40;;;9.57;;
27265;SDS011;14766;51.380;13.762;2024-01-30T04:42:48;19.13;;;11.18;;
27265;SDS011;14766;51.380;13.762;2024-01-30T04:45:15;16.42;;;10.10;;
27265;SDS011;14766;51.380;13.762;2024-01-30T04:47:42;17.73;;;10.40;;
27265;SDS011;14766;51.380;13.762;2024-01-30T04:50:09;17.05;;;10.55;;
27265;SDS011;14766;51.380;13.762;2024-01-30T04:52:36;18.67;;;10.25;;
27265;SDS011;14766;51.380;13.762;2024-01-30T04:55:04;17.48;;;10.13;;
27265;SDS011;14766;51.380;13.762;2024-01-30T04:57:31;16.48;;;9.35;;
27265;SDS011;14766;51.380;13.762;2024-01-30T05:00:04;18.85;;;10.40;;
27265;SDS011;14766;51.380;13.762;2024-01-30T05:02:38;20.65;;;12.02;;
27265;SDS011;14766;51.380;13.762;2024-01-30T05:05:05;17.58;;;10.57;;
27265;SDS011;14766;51.380;13.762;2024-01-30T05:07:32;21.58;;;11.25;;
27265;SDS011;14766;51.380;13.762;2024-01-30T05:09:59;24.33;;;14.18;;
27265;SDS011;14766;51.380;13.762;2024-01-30T05:12:31;27.52;;;16.27;;
27265;SDS011;14766;51.380;13.762;2024-01-30T05:14:58;26.52;;;17.30;;
27265;SDS011;14766;51.380;13.762;2024-01-30T05:17:25;22.92;;;14.10;;
27265;SDS011;14766;51.380;13.762;2024-01-30T05:19:53;21.85;;;12.52;;
27265;SDS011;14766;51.380;13.762;2024-01-30T05:22:20;22.95;;;12.35;;
27265;SDS011;14766;51.380;13.762;2024-01-30T05:24:47;21.27;;;11.90;;
27265;SDS011;14766;51.380;13.762;2024-01-30T05:27:14;23.58;;;11.98;;
27265;SDS011;14766;51.380;13.762;2024-01-30T05:29:41;17.60;;;10.75;;
27265;SDS011;14766;51.380;13.762;2024-01-30T05:32:08;22.13;;;10.35;;
27265;SDS011;14766;51.380;13.762;2024-01-30T05:34:37;18.80;;;10.90;;
27265;SDS011;14766;51.380;13.762;2024-01-30T05:37:04;22.38;;;11.00;;
27265;SDS011;14766;51.380;13.762;2024-01-30T05:39:32;20.23;;;11.07;;
27265;SDS011;14766;51.380;13.762;2024-01-30T05:41:59;21.25;;;10.63;;
27265;SDS011;14766;51.380;13.762;2024-01-30T05:44:26;20.15;;;10.77;;
27265;SDS011;14766;51.380;13.762;2024-01-30T05:46:53;17.88;;;11.10;;
27265;SDS011;14766;51.380;13.762;2024-01-30T05:49:20;18.98;;;10.70;;
27265;SDS011;14766;51.380;13.762;2024-01-30T05:51:48;22.88;;;11.13;;
27265;SDS011;14766;51.380;13.762;2024-01-30T05:54:15;17.25;;;10.70;;
27265;SDS011;14766;51.380;13.762;2024-01-30T05:56:43;21.13;;;12.13;;
27265;SDS011;14766;51.380;13.762;2024-01-30T05:59:10;24.13;;;11.90;;
27265;SDS011;14766;51.380;13.762;2024-01-30T06:01:38;19.98;;;11.55;;
27265;SDS011;14766;51.380;13.762;2024-01-30T06:04:11;22.70;;;12.48;;
27265;SDS011;14766;51.380;13.762;2024-01-30T06:06:38;21.38;;;12.30;;
27265;SDS011;14766;51.380;13.762;2024-01-30T06:09:06;20.73;;;11.82;;
27265;SDS011;14766;51.380;13.762;2024-01-30T06:11:35;25.80;;;13.00;;
27265;SDS011;14766;51.380;13.762;2024-01-30T06:14:02;23.27;;;13.05;;
27265;SDS011;14766;51.380;13.762;2024-01-30T06:16:29;20.08;;;11.57;;
27265;SDS011;14766;51.380;13.762;2024-01-30T06:18:57;19.15;;;11.68;;
27265;SDS011;14766;51.380;13.762;2024-01-30T06:21:24;20.92;;;12.30;;
27265;SDS011;14766;51.380;13.762;2024-01-30T06:23:51;22.92;;;11.98;;
27265;SDS011;14766;51.380;13.762;2024-01-30T06:26:18;24.55;;;13.45;;
27265;SDS011;14766;51.380;13.762;2024-01-30T06:28:45;23.17;;;13.30;;
27265;SDS011;14766;51.380;13.762;2024-01-30T06:31:12;21.67;;;13.13;;
27265;SDS011;14766;51.380;13.762;2024-01-30T06:33:39;22.42;;;12.32;;
27265;SDS011;14766;51.380;13.762;2024-01-30T06:36:10;23.35;;;12.15;;
27265;SDS011;14766;51.380;13.762;2024-01-30T06:38:37;17.42;;;10.77;;
27265;SDS011;14766;51.380;13.762;2024-01-30T06:41:04;18.90;;;11.45;;
27265;SDS011;14766;51.380;13.762;2024-01-30T06:43:31;22.00;;;11.73;;
27265;SDS011;14766;51.380;13.762;2024-01-30T06:45:58;24.52;;;12.55;;
27265;SDS011;14766;51.380;13.762;2024-01-30T06:48:27;18.88;;;11.30;;
27265;SDS011;14766;51.380;13.762;2024-01-30T06:50:54;21.38;;;11.60;;
27265;SDS011;14766;51.380;13.762;2024-01-30T06:53:21;24.63;;;13.05;;
27265;SDS011;14766;51.380;13.762;2024-01-30T06:55:48;21.92;;;13.02;;
27265;SDS011;14766;51.380;13.762;2024-01-30T06:58:18;26.13;;;14.57;;
27265;SDS011;14766;51.380;13.762;2024-01-30T07:00:45;25.55;;;14.57;;
27265;SDS011;14766;51.380;13.762;2024-01-30T07:03:13;31.35;;;15.63;;
27265;SDS011;14766;51.380;13.762;2024-01-30T07:05:40;25.23;;;14.98;;
27265;SDS011;14766;51.380;13.762;2024-01-30T07:08:07;20.63;;;13.68;;
27265;SDS011;14766;51.380;13.762;2024-01-30T07:10:35;22.15;;;12.27;;
27265;SDS011;14766;51.380;13.762;2024-01-30T07:13:02;23.20;;;12.43;;
27265;SDS011;14766;51.380;13.762;2024-01-30T07:15:31;22.38;;;13.15;;
27265;SDS011;14766;51.380;13.762;2024-01-30T07:17:59;28.15;;;16.13;;
27265;SDS011;14766;51.380;13.762;2024-01-30T07:20:26;25.20;;;13.50;;
27265;SDS011;14766;51.380;13.762;2024-01-30T07:22:53;25.05;;;14.73;;
27265;SDS011;14766;51.380;13.762;2024-01-30T07:25:21;22.90;;;12.35;;
27265;SDS011;14766;51.380;13.762;2024-01-30T07:27:54;20.70;;;11.32;;
27265;SDS011;14766;51.380;13.762;2024-01-30T07:30:21;22.42;;;12.70;;
27265;SDS011;14766;51.380;13.762;2024-01-30T07:32:49;27.95;;;12.45;;
27265;SDS011;14766;51.380;13.762;2024-01-30T07:35:16;21.88;;;12.73;;
27265;SDS011;14766;51.380;13.762;2024-01-30T07:37:44;19.77;;;12.48;;
27265;SDS011;14766;51.380;13.762;2024-01-30T07:40:11;24.42;;;13.95;;
27265;SDS011;14766;51.380;13.762;2024-01-30T07:42:38;19.95;;;12.40;;
27265;SDS011;14766;51.380;13.762;2024-01-30T07:45:06;23.27;;;12.93;;
27265;SDS011;14766;51.380;13.762;2024-01-30T07:47:33;18.83;;;11.65;;
27265;SDS011;14766;51.380;13.762;2024-01-30T07:50:00;20.58;;;11.45;;
27265;SDS011;14766;51.380;13.762;2024-01-30T07:52:28;18.35;;;11.65;;
27265;SDS011;14766;51.380;13.762;2024-01-30T07:54:56;21.00;;;12.48;;
27265;SDS011;14766;51.380;13.762;2024-01-30T07:57:26;24.58;;;13.05;;
27265;SDS011;14766;51.380;13.762;2024-01-30T07:59:53;20.88;;;12.15;;
27265;SDS011;14766;51.380;13.762;2024-01-30T08:02:20;21.00;;;11.73;;
27265;SDS011;14766;51.380;13.762;2024-01-30T08:04:48;18.15;;;11.50;;
27265;SDS011;14766;51.380;13.762;2024-01-30T08:07:16;16.80;;;10.80;;
27265;SDS011;14766;51.380;13.762;2024-01-30T08:09:44;18.60;;;11.95;;
27265;SDS011;14766;51.380;13.762;2024-01-30T08:12:11;20.25;;;12.50;;
27265;SDS011;14766;51.380;13.762;2024-01-30T08:14:40;20.80;;;11.40;;
27265;SDS011;14766;51.380;13.762;2024-01-30T08:17:07;19.08;;;10.80;;
27265;SDS011;14766;51.380;13.762;2024-01-30T08:19:34;19.65;;;12.05;;
27265;SDS011;14766;51.380;13.762;2024-01-30T08:22:02;22.92;;;11.38;;
27265;SDS011;14766;51.380;13.762;2024-01-30T08:24:29;16.77;;;10.80;;
27265;SDS011;14766;51.380;13.762;2024-01-30T08:26:56;23.38;;;12.15;;
27265;SDS011;14766;51.380;13.762;2024-01-30T08:29:24;20.05;;;11.85;;
27265;SDS011;14766;51.380;13.762;2024-01-30T08:31:52;20.10;;;11.75;;
27265;SDS011;14766;51.380;13.762;2024-01-30T08:34:22;16.38;;;10.57;;
27265;SDS011;14766;51.380;13.762;2024-01-30T08:36:49;22.63;;;12.27;;
27265;SDS011;14766;51.380;13.762;2024-01-30T08:39:16;22.35;;;11.95;;
27265;SDS011;14766;51.380;13.762;2024-01-30T08:41:44;18.77;;;11.52;;
27265;SDS011;14766;51.380;13.762;2024-01-30T08:44:13;20.60;;;12.13;;
27265;SDS011;14766;51.380;13.762;2024-01-30T08:46:40;20.05;;;11.52;;
27265;SDS011;14766;51.380;13.762;2024-01-30T08:49:09;19.13;;;11.35;;
27265;SDS011;14766;51.380;13.762;2024-01-30T08:51:36;20.02;;;11.45;;
27265;SDS011;14766;51.380;13.762;2024-01-30T08:54:03;21.15;;;12.38;;
27265;SDS011;14766;51.380;13.762;2024-01-30T08:56:30;18.58;;;12.00;;
27265;SDS011;14766;51.380;13.762;2024-01-30T08:58:57;20.33;;;12.30;;
27265;SDS011;14766;51.380;13.762;2024-01-30T09:01:25;18.08;;;11.65;;
27265;SDS011;14766;51.380;13.762;2024-01-30T09:03:52;19.75;;;11.70;;
27265;SDS011;14766;51.380;13.762;2024-01-30T09:06:19;21.58;;;11.90;;
27265;SDS011;14766;51.380;13.762;2024-01-30T09:08:46;18.65;;;11.55;;
27265;SDS011;14766;51.380;13.762;2024-01-30T09:11:13;17.52;;;11.25;;
27265;SDS011;14766;51.380;13.762;2024-01-30T09:13:41;22.33;;;12.05;;
27265;SDS011;14766;51.380;13.762;2024-01-30T09:16:09;18.23;;;11.85;;
27265;SDS011;14766;51.380;13.762;2024-01-30T09:18:36;17.20;;;11.10;;
27265;SDS011;14766;51.380;13.762;2024-01-30T09:21:03;16.25;;;10.52;;
27265;SDS011;14766;51.380;13.762;2024-01-30T09:23:30;18.92;;;11.75;;
27265;SDS011;14766;51.380;13.762;2024-01-30T09:25:58;17.25;;;10.95;;
27265;SDS011;14766;51.380;13.762;2024-01-30T09:28:25;19.42;;;11.20;;
27265;SDS011;14766;51.380;13.762;2024-01-30T09:30:53;20.05;;;11.10;;
27265;SDS011;14766;51.380;13.762;2024-01-30T09:33:20;18.65;;;10.93;;
27265;SDS011;14766;51.380;13.762;2024-01-30T09:35:47;17.05;;;10.90;;
27265;SDS011;14766;51.380;13.762;2024-01-30T09:38:15;18.23;;;11.40;;
27265;SDS011;14766;51.380;13.762;2024-01-30T09:40:42;19.35;;;11.20;;
27265;SDS011;14766;51.380;13.762;2024-01-30T09:43:11;17.23;;;11.10;;
27265;SDS011;14766;51.380;13.762;2024-01-30T09:45:44;18.15;;;11.13;;
27265;SDS011;14766;51.380;13.762;2024-01-30T09:48:27;15.48;;;10.45;;
27265;SDS011;14766;51.380;13.762;2024-01-30T09:50:57;16.92;;;10.77;;
27265;SDS011;14766;51.380;13.762;2024-01-30T09:53:24;16.33;;;9.93;;
27265;SDS011;14766;51.380;13.762;2024-01-30T09:55:52;15.77;;;10.48;;
27265;SDS011;14766;51.380;13.762;2024-01-30T09:58:19;18.63;;;10.60;;
27265;SDS011;14766;51.380;13.762;2024-01-30T10:00:46;15.20;;;10.27;;
27265;SDS011;14766;51.380;13.762;2024-01-30T10:03:13;14.98;;;9.50;;
27265;SDS011;14766;51.380;13.762;2024-01-30T10:05:41;17.88;;;10.50;;
27265;SDS011;14766;51.380;13.762;2024-01-30T10:08:16;18.25;;;10.60;;
27265;SDS011;14766;51.380;13.762;2024-01-30T10:10:49;16.48;;;10.18;;
27265;SDS011;14766;51.380;13.762;2024-01-30T10:13:16;16.80;;;9.73;;
27265;SDS011;14766;51.380;13.762;2024-01-30T10:15:44;17.63;;;10.48;;
27265;SDS011;14766;51.380;13.762;2024-01-30T10:18:12;15.50;;;10.32;;
27265;SDS011;14766;51.380;13.762;2024-01-30T10:20:40;18.05;;;11.52;;
27265;SDS011;14766;51.380;13.762;2024-01-30T10:23:07;17.23;;;10.60;;
27265;SDS011;14766;51.380;13.762;2024-01-30T10:25:35;16.52;;;10.50;;
27265;SDS011;14766;51.380;13.762;2024-01-30T10:28:02;15.55;;;10.35;;
27265;SDS011;14766;51.380;13.762;2024-01-30T10:30:30;17.33;;;10.75;;
27265;SDS011;14766;51.380;13.762;2024-01-30T10:32:59;15.15;;;10.07;;
27265;SDS011;14766;51.380;13.762;2024-01-30T10:35:26;15.55;;;9.93;;
27265;SDS011;14766;51.380;13.762;2024-01-30T10:37:56;19.00;;;9.98;;
27265;SDS011;14766;51.380;13.762;2024-01-30T10:40:27;16.33;;;10.48;;
27265;SDS011;14766;51.380;13.762;2024-01-30T10:42:55;16.42;;;10.45;;
27265;SDS011;14766;51.380;13.762;2024-01-30T10:45:23;16.17;;;10.60;;
27265;SDS011;14766;51.380;13.762;2024-01-30T10:47:54;16.42;;;10.48;;
27265;SDS011;14766;51.380;13.762;2024-01-30T10:50:25;15.73;;;10.05;;
27265;SDS011;14766;51.380;13.762;2024-01-30T10:52:54;15.38;;;9.93;;
27265;SDS011;14766;51.380;13.762;2024-01-30T10:55:22;18.48;;;10.70;;
27265;SDS011;14766;51.380;13.762;2024-01-30T10:57:53;19.42;;;10.15;;
27265;SDS011;14766;51.380;13.762;2024-01-30T11:00:20;15.27;;;10.13;;
27265;SDS011;14766;51.380;13.762;2024-01-30T11:02:50;15.85;;;9.57;;
27265;SDS011;14766;51.380;13.762;2024-01-30T11:05:25;16.30;;;9.82;;
27265;SDS011;14766;51.380;13.762;2024-01-30T11:08:10;15.07;;;10.48;;
27265;SDS011;14766;51.380;13.762;2024-01-30T11:10:46;18.40;;;10.70;;
27265;SDS011;14766;51.380;13.762;2024-01-30T11:13:14;16.73;;;11.15;;
27265;SDS011;14766;51.380;13.762;2024-01-30T11:15:42;16.98;;;10.43;;
27265;SDS011;14766;51.380;13.762;2024-01-30T11:18:12;17.05;;;10.18;;
27265;SDS011;14766;51.380;13.762;2024-01-30T11:20:50;16.58;;;10.88;;
27265;SDS011;14766;51.380;13.762;2024-01-30T11:23:17;18.40;;;10.45;;
27265;SDS011;14766;51.380;13.762;2024-01-30T11:25:44;16.63;;;9.77;;
27265;SDS011;14766;51.380;13.762;2024-01-30T11:28:15;14.55;;;9.93;;
27265;SDS011;14766;51.380;13.762;2024-01-30T11:30:43;20.10;;;10.95;;
27265;SDS011;14766;51.380;13.762;2024-01-30T11:33:11;15.75;;;10.57;;
27265;SDS011;14766;51.380;13.762;2024-01-30T11:35:40;18.88;;;10.65;;
27265;SDS011;14766;51.380;13.762;2024-01-30T11:38:10;16.50;;;10.13;;
27265;SDS011;14766;51.380;13.762;2024-01-30T11:40:39;18.80;;;10.77;;
27265;SDS011;14766;51.380;13.762;2024-01-30T11:43:09;14.43;;;9.68;;
27265;SDS011;14766;51.380;13.762;2024-01-30T11:45:36;16.48;;;10.60;;
27265;SDS011;14766;51.380;13.762;2024-01-30T11:48:04;15.05;;;9.30;;
27265;SDS011;14766;51.380;13.762;2024-01-30T11:50:32;15.43;;;9.85;;
27265;SDS011;14766;51.380;13.762;2024-01-30T11:53:01;14.82;;;10.18;;
27265;SDS011;14766;51.380;13.762;2024-01-30T11:55:29;15.13;;;9.90;;
27265;SDS011;14766;51.380;13.762;2024-01-30T11:58:01;18.48;;;10.45;;
27265;SDS011;14766;51.380;13.762;2024-01-30T12:00:29;15.15;;;10.00;;
27265;SDS011;14766;51.380;13.762;2024-01-30T12:03:01;15.77;;;9.60;;
27265;SDS011;14766;51.380;13.762;2024-01-30T12:05:30;16.00;;;10.45;;
27265;SDS011;14766;51.380;13.762;2024-01-30T12:07:57;18.48;;;10.82;;
27265;SDS011;14766;51.380;13.762;2024-01-30T12:10:28;17.50;;;10.25;;
27265;SDS011;14766;51.380;13.762;2024-01-30T12:12:56;19.15;;;11.15;;
27265;SDS011;14766;51.380;13.762;2024-01-30T12:15:25;16.02;;;9.90;;
27265;SDS011;14766;51.380;13.762;2024-01-30T12:17:52;19.25;;;10.80;;
27265;SDS011;14766;51.380;13.762;2024-01-30T12:20:30;16.23;;;10.30;;
27265;SDS011;14766;51.380;13.762;2024-01-30T12:22:57;15.25;;;10.10;;
27265;SDS011;14766;51.380;13.762;2024-01-30T12:25:24;17.08;;;10.13;;
27265;SDS011;14766;51.380;13.762;2024-01-30T12:27:52;17.52;;;10.63;;
27265;SDS011;14766;51.380;13.762;2024-01-30T12:30:19;15.48;;;10.15;;
27265;SDS011;14766;51.380;13.762;2024-01-30T12:32:51;16.55;;;10.55;;
27265;SDS011;14766;51.380;13.762;2024-01-30T12:35:19;19.63;;;10.65;;
27265;SDS011;14766;51.380;13.762;2024-01-30T12:37:48;17.58;;;11.02;;
27265;SDS011;14766;51.380;13.762;2024-01-30T12:40:16;17.00;;;10.43;;
27265;SDS011;14766;51.380;13.762;2024-01-30T12:42:46;17.55;;;10.40;;
27265;SDS011;14766;51.380;13.762;2024-01-30T12:45:17;16.05;;;10.73;;
27265;SDS011;14766;51.380;13.762;2024-01-30T12:47:50;17.13;;;11.52;;
27265;SDS011;14766;51.380;13.762;2024-01-30T12:50:20;17.65;;;11.57;;
27265;SDS011;14766;51.380;13.762;2024-01-30T12:52:49;20.08;;;11.10;;
27265;SDS011;14766;51.380;13.762;2024-01-30T12:55:16;18.17;;;10.50;;
27265;SDS011;14766;51.380;13.762;2024-01-30T12:57:45;21.25;;;11.57;;
27265;SDS011;14766;51.380;13.762;2024-01-30T13:00:12;19.88;;;12.00;;
27265;SDS011;14766;51.380;13.762;2024-01-30T13:02:40;21.35;;;10.85;;
27265;SDS011;14766;51.380;13.762;2024-01-30T13:05:09;18.98;;;11.20;;
27265;SDS011;14766;51.380;13.762;2024-01-30T13:07:36;18.88;;;11.27;;
27265;SDS011;14766;51.380;13.762;2024-01-30T13:10:04;19.45;;;11.07;;
27265;SDS011;14766;51.380;13.762;2024-01-30T13:12:31;15.27;;;9.70;;
27265;SDS011;14766;51.380;13.762;2024-01-30T13:15:00;16.48;;;10.57;;
27265;SDS011;14766;51.380;13.762;2024-01-30T13:17:31;16.40;;;10.30;;
27265;SDS011;14766;51.380;13.762;2024-01-30T13:19:59;22.52;;;11.77;;
27265;SDS011;14766;51.380;13.762;2024-01-30T13:22:36;15.57;;;9.90;;
27265;SDS011;14766;51.380;13.762;2024-01-30T13:25:06;19.85;;;11.75;;
27265;SDS011;14766;51.380;13.762;2024-01-30T13:27:34;20.23;;;11.23;;
27265;SDS011;14766;51.380;13.762;2024-01-30T13:30:02;18.35;;;11.15;;
27265;SDS011;14766;51.380;13.762;2024-01-30T13:32:30;15.73;;;10.45;;
27265;SDS011;14766;51.380;13.762;2024-01-30T13:34:57;19.08;;;10.75;;
27265;SDS011;14766;51.380;13.762;2024-01-30T13:37:25;17.00;;;10.35;;
27265;SDS011;14766;51.380;13.762;2024-01-30T13:39:52;17.40;;;10.02;;
27265;SDS011;14766;51.380;13.762;2024-01-30T13:42:19;19.85;;;11.27;;
27265;SDS011;14766;51.380;13.762;2024-01-30T13:44:46;16.67;;;10.13;;
27265;SDS011;14766;51.380;13.762;2024-01-30T13:47:13;17.85;;;10.73;;
27265;SDS011;14766;51.380;13.762;2024-01-30T13:49:41;18.30;;;10.88;;
27265;SDS011;14766;51.380;13.762;2024-01-30T13:52:08;17.98;;;10.60;;
27265;SDS011;14766;51.380;13.762;2024-01-30T13:54:35;20.38;;;11.50;;
27265;SDS011;14766;51.380;13.762;2024-01-30T13:57:03;20.63;;;11.95;;
27265;SDS011;14766;51.380;13.762;2024-01-30T13:59:30;20.55;;;11.25;;
27265;SDS011;14766;51.380;13.762;2024-01-30T14:01:58;20.67;;;11.73;;
27265;SDS011;14766;51.380;13.762;2024-01-30T14:04:25;18.45;;;10.45;;
27265;SDS011;14766;51.380;13.762;2024-01-30T14:06:52;19.20;;;10.80;;
27265;SDS011;14766;51.380;13.762;2024-01-30T14:09:30;18.15;;;10.40;;
27265;SDS011;14766;51.380;13.762;2024-01-30T14:11:59;19.02;;;11.02;;
27265;SDS011;14766;51.380;13.762;2024-01-30T14:14:26;20.52;;;12.40;;